Holyoke, CO

9:13 PM MDT on July 25, 2014 (GMT -0600)
Sidney Municipal (KSNY) Elev 4304 ft | 41.10 °N, 102.99 °W | Change Station

Current weather conditions updated 20 minutes ago

Partly Cloudy
Partly Cloudy
73 °F
Feels Like 73 °F
N
7
Wind Variable Wind from West

Tomorrow is forecast to be nearly the same temperature as today.

Today
High -- | Low -- °F
--% Chance of Precip.
Yesterday
High -- | Low -- °F
Precip. -- in
5:39 AM 8:11 PM
Waning Crescent, 1% visible
Pressure 29.86 in
Visibility 10.0 miles
Clouds Few 5000 ft
Few 12000 ft
Dew Point 57 °F
Humidity 57%
Rainfall 0.00 in
Snow Depth Not available.
UV 0 out of 12
Pollen 7.10 out of 12
Air Quality Not available.
Flu Activity Not available.
METAR KSNY 260253Z AUTO 28006KT 10SM FEW050 FEW120 23/14 A3001 RMK AO2 RAE50 SLP109 P0000 60000 T02280139 50005

More Conditions Fewer Conditions

Pressure 29.86 in
Visibility 10.0 miles
Clouds Few 5000 ft
Few 12000 ft
Dew Point 57 °F
Humidity 57%
Rainfall 0.00 in
Snow Depth Not available.
UV 0 out of 12
Pollen 7.10 out of 12
Air Quality Not available.
Flu Activity Not available.
METAR KSNY 260253Z AUTO 28006KT 10SM FEW050 FEW120 23/14 A3001 RMK AO2 RAE50 SLP109 P0000 60000 T02280139 50005

More Conditions Fewer Conditions

10-Day Weather Forecast

Almanac

Astronomy

Jul. 25, 2014 Rise Set
Actual Time 5:39 AM MDT 8:11 PM MDT
Civil Twilight 5:08 AM MDT 8:42 PM MDT
Nautical Twilight 4:29 AM MDT 9:21 PM MDT
Astronomical Twilight 3:45 AM MDT 10:04 PM MDT
Moon 4:41 AM MDT (7/25) 7:09 PM MDT (7/25)
Length of Visible Light 15h 33m
Length of Day
14h 31m
Tomorrow will be 1m 49s shorter.
Waning Crescent, 1% of the Moon is Illuminated
Today
Waning Crescent
Jul 26
New
Aug 3
First Quarter
Aug 10
Full
Aug 17
Last Quarter

Today's Extremes

State Highs State Lows

Community

WunderPhotos

Upload Photos

1,737,495 photos uploaded!

Nearby

Snow Depth

Station Depth Elevation
Copeland Lake 0 in 8600 ft
Niwot 0 in 9910 ft
University Camp 0 in 10300 ft
Lake Irene 2 in 10700 ft
Echo Lake 0 in 10600 ft

Earthquake Activity

City Distance Mag. Time & Date
No recent earthquake activity has been reported nearby.
Minimum magnitude displayed is 2.5.

Coastal Water Temperatures

Place Temperature
No Stations Reporting

Nearby Weather Stations

There are no personal weather stations in this area.